createdAt,value
2017-07-26T00:02:00.710Z,1.57
2017-07-26T00:04:29.438Z,1.10
2017-07-26T00:06:58.138Z,4.35
2017-07-26T00:09:26.834Z,0.75
2017-07-26T00:11:56.290Z,0.70
2017-07-26T00:14:24.978Z,1.00
2017-07-26T00:16:53.673Z,0.95
2017-07-26T00:19:22.471Z,1.00
2017-07-26T00:21:51.190Z,1.10
2017-07-26T00:24:19.901Z,0.85
2017-07-26T00:26:48.607Z,0.93
2017-07-26T00:29:17.318Z,1.02
2017-07-26T00:31:46.013Z,1.10
2017-07-26T00:34:14.752Z,0.90
2017-07-26T00:36:43.579Z,1.12
2017-07-26T00:39:12.315Z,1.23
2017-07-26T00:41:41.082Z,1.02
2017-07-26T00:44:09.789Z,1.30
2017-07-26T00:46:38.469Z,1.30
2017-07-26T00:49:07.174Z,1.45
2017-07-26T00:51:35.862Z,1.45
2017-07-26T00:54:04.562Z,1.52
2017-07-26T00:56:33.282Z,1.65
2017-07-26T00:59:01.967Z,0.90
2017-07-26T01:01:30.638Z,1.00
2017-07-26T01:03:59.389Z,0.98
2017-07-26T01:06:28.081Z,1.17
2017-07-26T01:08:56.769Z,1.45
2017-07-26T01:11:25.492Z,1.70
2017-07-26T01:13:54.205Z,1.30
2017-07-26T01:16:22.903Z,1.33
2017-07-26T01:18:51.601Z,1.20
2017-07-26T01:21:20.315Z,2.47
2017-07-26T01:23:49.034Z,1.08
2017-07-26T01:26:17.741Z,1.10
2017-07-26T01:28:46.422Z,1.17
2017-07-26T01:31:15.105Z,1.40
2017-07-26T01:33:43.835Z,1.35
2017-07-26T01:36:12.534Z,1.50
2017-07-26T01:38:41.833Z,0.85
2017-07-26T01:41:10.562Z,0.95
2017-07-26T01:43:39.269Z,1.52
2017-07-26T01:46:07.969Z,1.45
2017-07-26T01:48:36.714Z,1.60
2017-07-26T01:51:05.395Z,1.27
2017-07-26T01:53:34.147Z,1.60
2017-07-26T01:56:02.294Z,1.30
2017-07-26T01:58:30.300Z,1.30
2017-07-26T02:00:58.978Z,1.40
2017-07-26T02:03:27.786Z,1.10
2017-07-26T02:05:56.461Z,1.40
2017-07-26T02:08:25.397Z,1.40
2017-07-26T02:10:54.113Z,1.25
2017-07-26T02:13:22.805Z,1.30
2017-07-26T02:15:51.518Z,1.08
2017-07-26T02:18:20.226Z,1.40
2017-07-26T02:20:48.931Z,1.20
2017-07-26T02:23:18.407Z,1.50
2017-07-26T02:25:47.133Z,0.90
2017-07-26T02:28:15.817Z,1.33
2017-07-26T02:30:44.521Z,1.00
2017-07-26T02:33:13.253Z,1.65
2017-07-26T02:35:41.996Z,1.30
2017-07-26T02:38:10.714Z,1.30
2017-07-26T02:40:40.193Z,1.37
2017-07-26T02:43:08.902Z,1.10
2017-07-26T02:45:37.605Z,1.52
2017-07-26T02:48:06.375Z,1.15
2017-07-26T02:50:35.092Z,1.20
2017-07-26T02:53:03.811Z,1.58
2017-07-26T02:55:32.550Z,1.65
2017-07-26T02:58:04.419Z,1.25
2017-07-26T03:00:33.147Z,1.60
2017-07-26T03:03:01.868Z,1.33
2017-07-26T03:05:30.545Z,1.30
2017-07-26T03:07:59.389Z,1.52
2017-07-26T03:10:28.103Z,1.60
2017-07-26T03:12:58.305Z,1.20
2017-07-26T03:15:27.016Z,1.42
2017-07-26T03:17:55.733Z,1.90
2017-07-26T03:20:24.428Z,2.28
2017-07-26T03:22:53.146Z,1.85
2017-07-26T03:25:21.890Z,2.85
2017-07-26T03:27:50.601Z,2.55
2017-07-26T03:30:19.316Z,2.45
2017-07-26T03:32:48.813Z,2.53
2017-07-26T03:35:17.559Z,3.10
2017-07-26T03:37:46.735Z,2.80
2017-07-26T03:40:16.191Z,3.12
2017-07-26T03:42:45.814Z,2.80
2017-07-26T03:45:14.577Z,3.05
2017-07-26T03:47:43.296Z,2.10
2017-07-26T03:50:12.030Z,2.42
2017-07-26T03:52:40.757Z,2.40
2017-07-26T03:55:09.450Z,2.72
2017-07-26T03:57:38.162Z,1.90
2017-07-26T04:00:07.693Z,2.10
2017-07-26T04:02:36.405Z,1.90
2017-07-26T04:05:05.116Z,2.28
2017-07-26T04:07:33.870Z,2.10
2017-07-26T04:10:02.585Z,1.80
2017-07-26T04:12:31.277Z,2.75
2017-07-26T04:15:00.011Z,2.20
2017-07-26T04:17:28.706Z,1.90
2017-07-26T04:19:57.409Z,1.55
2017-07-26T04:22:26.152Z,1.67
2017-07-26T04:24:54.868Z,2.10
2017-07-26T04:27:23.587Z,1.95
2017-07-26T04:29:52.336Z,1.90
2017-07-26T04:32:21.049Z,1.95
2017-07-26T04:34:49.737Z,2.20
2017-07-26T04:37:18.479Z,1.95
2017-07-26T04:39:47.170Z,1.83
2017-07-26T04:42:15.918Z,1.85
2017-07-26T04:44:44.641Z,1.62
2017-07-26T04:47:13.364Z,1.30
2017-07-26T04:49:42.065Z,1.20
2017-07-26T04:52:10.795Z,1.77
2017-07-26T04:54:39.531Z,1.37
2017-07-26T04:57:08.235Z,1.87
2017-07-26T04:59:37.001Z,1.60
2017-07-26T05:02:05.715Z,1.80
2017-07-26T05:04:34.418Z,1.45
2017-07-26T05:07:03.159Z,1.60
2017-07-26T05:09:31.931Z,2.22
2017-07-26T05:12:01.436Z,2.20
2017-07-26T05:14:29.918Z,1.33
2017-07-26T05:16:58.381Z,1.20
2017-07-26T05:19:27.590Z,1.20
2017-07-26T05:21:56.046Z,1.73
2017-07-26T05:24:24.472Z,1.20
2017-07-26T05:26:52.894Z,1.40
2017-07-26T05:29:21.355Z,1.43
2017-07-26T05:31:49.817Z,1.60
2017-07-26T05:34:18.266Z,1.20
2017-07-26T05:36:46.801Z,1.50
2017-07-26T05:39:15.270Z,0.90
2017-07-26T05:41:43.795Z,1.60
2017-07-26T05:44:21.049Z,1.40
2017-07-26T05:46:49.519Z,1.53
2017-07-26T05:49:17.996Z,1.60
2017-07-26T05:51:46.543Z,1.27
2017-07-26T05:54:15.012Z,1.20
2017-07-26T05:56:43.483Z,1.30
2017-07-26T05:59:11.948Z,1.40
2017-07-26T06:01:40.424Z,1.63
2017-07-26T06:04:08.869Z,0.97
2017-07-26T06:06:37.392Z,1.20
2017-07-26T06:09:05.528Z,1.47
2017-07-26T06:11:34.013Z,1.30
2017-07-26T06:14:02.494Z,1.30
2017-07-26T06:16:30.921Z,1.97
2017-07-26T06:18:59.403Z,1.90
2017-07-26T06:21:27.963Z,1.93
2017-07-26T06:23:56.413Z,1.67
2017-07-26T06:26:24.886Z,2.10
2017-07-26T06:28:54.098Z,2.33
2017-07-26T06:31:22.744Z,2.40
2017-07-26T06:33:51.270Z,1.90
2017-07-26T06:36:20.520Z,2.00
2017-07-26T06:38:48.967Z,2.53
2017-07-26T06:41:17.712Z,2.60
2017-07-26T06:43:46.245Z,2.13
2017-07-26T06:46:14.722Z,2.33
2017-07-26T06:48:43.272Z,2.87
2017-07-26T06:51:11.809Z,3.03
2017-07-26T06:53:40.275Z,2.97
2017-07-26T06:56:08.759Z,2.30
2017-07-26T06:58:37.278Z,2.67
2017-07-26T07:01:05.839Z,2.97
2017-07-26T07:03:34.369Z,2.47
2017-07-26T07:06:02.873Z,2.63
2017-07-26T07:08:31.347Z,2.90
2017-07-26T07:11:00.636Z,2.50
2017-07-26T07:13:29.655Z,1.87
2017-07-26T07:15:58.166Z,2.10
2017-07-26T07:18:26.696Z,2.50
2017-07-26T07:20:55.288Z,2.90
2017-07-26T07:23:23.901Z,2.60
2017-07-26T07:25:52.393Z,2.63
2017-07-26T07:28:20.910Z,2.73
2017-07-26T07:30:49.413Z,2.50
2017-07-26T07:33:17.919Z,2.90
2017-07-26T07:35:47.179Z,3.17
2017-07-26T07:38:15.637Z,2.47
2017-07-26T07:40:44.135Z,2.20
2017-07-26T07:43:12.655Z,2.40
2017-07-26T07:45:41.175Z,2.50
2017-07-26T07:48:09.723Z,1.63
2017-07-26T07:50:39.026Z,2.17
2017-07-26T07:53:07.515Z,1.40
2017-07-26T07:55:35.992Z,1.43
2017-07-26T07:58:04.458Z,1.70
2017-07-26T08:00:32.938Z,1.70
2017-07-26T08:03:01.441Z,2.17
2017-07-26T08:05:30.630Z,1.80
2017-07-26T08:07:59.122Z,1.47
2017-07-26T08:10:27.650Z,1.83
2017-07-26T08:12:56.200Z,1.33
2017-07-26T08:15:24.715Z,2.00
2017-07-26T08:17:53.200Z,1.77
2017-07-26T08:20:21.681Z,1.87
2017-07-26T08:22:50.170Z,1.70
2017-07-26T08:25:18.697Z,2.03
2017-07-26T08:27:47.251Z,2.53
2017-07-26T08:30:16.762Z,2.10
2017-07-26T08:32:45.251Z,1.73
2017-07-26T08:35:13.727Z,2.20
2017-07-26T08:37:42.207Z,1.70
2017-07-26T08:40:10.685Z,2.00
2017-07-26T08:42:39.168Z,1.60
2017-07-26T08:45:07.635Z,1.47
2017-07-26T08:47:36.110Z,1.57
2017-07-26T08:50:04.625Z,1.57
2017-07-26T08:52:33.087Z,1.53
2017-07-26T08:55:01.523Z,1.80
2017-07-26T08:57:29.666Z,1.37
2017-07-26T08:59:58.582Z,1.23
2017-07-26T09:02:27.039Z,1.27
2017-07-26T09:04:55.558Z,1.40
2017-07-26T09:07:24.794Z,1.50
2017-07-26T09:09:53.282Z,1.33
2017-07-26T09:12:23.643Z,1.10
2017-07-26T09:14:55.803Z,1.03
2017-07-26T09:17:24.329Z,1.40
2017-07-26T09:19:53.579Z,0.90
2017-07-26T09:22:22.041Z,1.20
2017-07-26T09:24:50.582Z,0.73
2017-07-26T09:27:19.854Z,0.83
2017-07-26T09:29:48.349Z,1.20
2017-07-26T09:32:16.832Z,0.77
2017-07-26T09:34:45.287Z,0.70
2017-07-26T09:37:13.772Z,0.93
2017-07-26T09:39:44.303Z,0.70
2017-07-26T09:42:12.793Z,1.17
2017-07-26T09:44:41.251Z,0.77
2017-07-26T09:47:09.763Z,0.70
2017-07-26T09:49:38.217Z,0.50
2017-07-26T09:52:10.066Z,0.90
2017-07-26T09:54:38.580Z,0.63
2017-07-26T09:57:07.092Z,0.83
2017-07-26T09:59:39.343Z,0.60
2017-07-26T10:02:07.798Z,0.73
2017-07-26T10:04:36.302Z,0.80
2017-07-26T10:07:04.823Z,0.90
2017-07-26T10:09:35.970Z,1.07
2017-07-26T10:12:04.451Z,1.10
2017-07-26T10:14:34.760Z,1.17
2017-07-26T10:17:08.052Z,1.40
2017-07-26T10:19:38.452Z,1.00
2017-07-26T10:22:07.269Z,0.90
2017-07-26T10:24:35.871Z,1.20
2017-07-26T10:27:07.547Z,1.17
2017-07-26T10:29:36.059Z,1.00
2017-07-26T10:32:05.483Z,1.00
2017-07-26T10:34:35.135Z,1.23
2017-07-26T10:37:06.850Z,0.90
2017-07-26T10:39:35.591Z,1.33
2017-07-26T10:42:04.151Z,0.80
2017-07-26T10:44:32.674Z,0.90
2017-07-26T10:47:01.197Z,0.80
2017-07-26T10:49:29.719Z,1.20
2017-07-26T10:51:59.458Z,1.30
2017-07-26T10:54:27.995Z,1.13
2017-07-26T10:56:56.503Z,1.27
2017-07-26T10:59:24.962Z,1.10
2017-07-26T11:01:53.529Z,1.27
2017-07-26T11:04:22.002Z,1.30
2017-07-26T11:06:50.526Z,1.20
2017-07-26T11:09:21.670Z,1.37
2017-07-26T11:11:49.812Z,1.50
2017-07-26T11:14:19.223Z,1.80
2017-07-26T11:16:47.808Z,1.30
2017-07-26T11:19:16.384Z,1.37
2017-07-26T11:21:44.861Z,1.10
2017-07-26T11:26:56.276Z,1.20
2017-07-26T11:29:24.858Z,1.30
2017-07-26T11:31:53.452Z,2.10
2017-07-26T11:34:23.067Z,2.47
2017-07-26T11:36:51.626Z,1.90
2017-07-26T11:39:20.126Z,1.70
2017-07-26T11:41:48.595Z,1.60
2017-07-26T11:44:17.107Z,2.90
2017-07-26T11:46:45.603Z,2.63
2017-07-26T11:49:14.132Z,2.10
2017-07-26T11:51:42.716Z,2.83
2017-07-26T11:54:11.193Z,3.60
2017-07-26T11:56:39.700Z,3.27
2017-07-26T11:59:08.213Z,2.87
2017-07-26T12:04:17.050Z,2.63
2017-07-26T12:06:47.282Z,2.50
2017-07-26T12:09:17.496Z,2.40
2017-07-26T12:11:46.647Z,2.27
2017-07-26T12:14:15.171Z,2.03
2017-07-26T12:16:43.693Z,2.20
2017-07-26T12:19:12.223Z,1.97
2017-07-26T12:21:42.940Z,2.07
2017-07-26T12:24:11.518Z,2.40
2017-07-26T12:26:39.986Z,2.27
2017-07-26T12:29:08.525Z,2.10
2017-07-26T12:31:37.122Z,2.53
2017-07-26T12:34:05.650Z,2.90
2017-07-26T12:36:34.802Z,2.90
2017-07-26T12:39:03.194Z,2.00
2017-07-26T12:41:31.808Z,2.37
2017-07-26T12:44:00.358Z,1.80
2017-07-26T12:46:29.015Z,2.37
2017-07-26T12:48:57.585Z,2.30
2017-07-26T12:51:26.638Z,1.90
2017-07-26T12:53:55.244Z,1.60
2017-07-26T12:56:23.738Z,1.77
2017-07-26T12:58:52.199Z,1.90
2017-07-26T13:01:26.112Z,1.80
2017-07-26T13:03:54.587Z,1.87
2017-07-26T13:06:23.103Z,2.27
2017-07-26T13:08:51.659Z,1.80
2017-07-26T13:11:20.147Z,2.50
2017-07-26T13:13:48.632Z,1.97
2017-07-26T13:16:17.146Z,2.03
2017-07-26T13:18:45.620Z,2.27
2017-07-26T13:21:14.113Z,2.03
2017-07-26T13:23:42.647Z,2.27
2017-07-26T13:26:11.124Z,2.50
2017-07-26T13:28:39.651Z,1.90
2017-07-26T13:31:08.186Z,2.00
2017-07-26T13:33:36.738Z,2.60
2017-07-26T13:36:05.251Z,2.20
2017-07-26T13:38:33.788Z,2.20
2017-07-26T13:41:02.314Z,2.03
2017-07-26T13:43:30.854Z,2.20
2017-07-26T13:45:59.358Z,1.90
2017-07-26T13:48:27.846Z,1.93
2017-07-26T13:50:56.387Z,2.53
2017-07-26T13:53:24.918Z,2.37
2017-07-26T13:55:53.420Z,2.30
2017-07-26T13:58:21.917Z,2.10
2017-07-26T14:00:51.237Z,1.90
2017-07-26T14:03:19.772Z,1.67
2017-07-26T14:05:49.082Z,1.90
2017-07-26T14:08:17.565Z,1.97
2017-07-26T14:10:46.070Z,1.73
2017-07-26T14:13:14.778Z,1.47
2017-07-26T14:15:43.348Z,2.30
2017-07-26T14:18:11.861Z,1.73
2017-07-26T14:20:40.315Z,1.80
2017-07-26T14:23:08.876Z,1.50
2017-07-26T14:25:37.331Z,1.43
2017-07-26T14:28:05.799Z,1.83
2017-07-26T14:30:34.300Z,1.77
2017-07-26T14:33:03.323Z,2.17
2017-07-26T14:35:31.778Z,1.50
2017-07-26T14:38:00.429Z,1.33
2017-07-26T14:40:28.870Z,1.20
2017-07-26T14:42:57.382Z,1.53
2017-07-26T14:45:25.862Z,1.50
2017-07-26T14:47:54.342Z,1.30
2017-07-26T14:50:22.558Z,1.70
2017-07-26T14:52:51.042Z,1.40
2017-07-26T14:55:19.485Z,2.03
2017-07-26T14:57:47.927Z,1.23
2017-07-26T15:00:16.403Z,1.43
2017-07-26T15:02:44.860Z,1.70
2017-07-26T15:05:13.337Z,1.67
2017-07-26T15:07:41.799Z,1.33
2017-07-26T15:10:10.249Z,1.50
2017-07-26T15:12:38.689Z,1.17
2017-07-26T15:15:07.167Z,1.33
2017-07-26T15:17:35.654Z,1.17
2017-07-26T15:20:04.091Z,1.20
2017-07-26T15:22:32.619Z,1.17
2017-07-26T15:25:01.078Z,1.10
2017-07-26T15:27:29.545Z,1.20
2017-07-26T15:29:58.009Z,1.40
2017-07-26T15:32:26.549Z,1.40
2017-07-26T15:34:55.011Z,1.30
2017-07-26T15:37:23.518Z,2.57
2017-07-26T15:39:51.929Z,2.00
2017-07-26T15:42:20.352Z,0.80
2017-07-26T15:44:48.858Z,1.43
2017-07-26T15:47:17.307Z,1.33
2017-07-26T15:49:45.722Z,1.10
2017-07-26T15:52:14.180Z,0.90
2017-07-26T15:54:42.623Z,1.50
2017-07-26T15:57:11.043Z,1.03
2017-07-26T15:59:39.550Z,0.90
2017-07-26T16:02:08.033Z,1.03
2017-07-26T16:04:36.458Z,1.20
2017-07-26T16:07:04.958Z,0.60
2017-07-26T16:09:33.456Z,0.80
2017-07-26T16:12:02.046Z,0.50
2017-07-26T16:14:30.582Z,0.93
2017-07-26T16:16:59.036Z,0.40
2017-07-26T16:19:27.495Z,0.80
2017-07-26T16:21:56.429Z,0.50
2017-07-26T16:24:24.919Z,0.60
2017-07-26T16:26:53.391Z,0.50
2017-07-26T16:29:21.875Z,0.60
2017-07-26T16:31:50.334Z,0.60
2017-07-26T16:34:18.769Z,0.50
2017-07-26T16:36:47.282Z,0.50
2017-07-26T16:39:15.745Z,0.40
2017-07-26T16:41:44.219Z,0.50
2017-07-26T16:44:13.468Z,0.40
2017-07-26T16:46:41.889Z,0.53
2017-07-26T16:49:10.357Z,1.40
2017-07-26T16:51:38.886Z,0.40
2017-07-26T16:54:07.309Z,0.50
2017-07-26T16:56:35.794Z,0.60
2017-07-26T16:59:04.273Z,0.40
2017-07-26T17:01:32.747Z,0.50
2017-07-26T17:04:01.344Z,0.70
2017-07-26T17:06:29.897Z,0.50
2017-07-26T17:09:05.417Z,0.60
2017-07-26T17:11:41.736Z,0.80
2017-07-26T17:14:10.215Z,0.70
2017-07-26T17:16:38.725Z,0.73
2017-07-26T17:19:07.300Z,0.63
2017-07-26T17:21:35.798Z,0.70
2017-07-26T17:24:04.396Z,0.50
2017-07-26T17:26:32.873Z,0.60
2017-07-26T17:29:01.373Z,0.60
2017-07-26T17:31:29.831Z,0.57
2017-07-26T17:33:58.337Z,0.80
2017-07-26T17:36:28.772Z,0.70
2017-07-26T17:38:57.265Z,0.60
2017-07-26T17:41:25.742Z,0.80
2017-07-26T17:43:54.214Z,1.07
2017-07-26T17:46:22.829Z,0.83
2017-07-26T17:48:51.481Z,1.20
2017-07-26T17:51:20.078Z,0.90
2017-07-26T17:53:48.810Z,1.00
2017-07-26T17:56:17.506Z,0.93
2017-07-26T17:58:46.107Z,1.10
2017-07-26T18:01:14.602Z,1.27
2017-07-26T18:03:43.403Z,0.80
2017-07-26T18:06:11.917Z,0.70
2017-07-26T18:08:40.395Z,1.43
2017-07-26T18:11:08.846Z,1.13
2017-07-26T18:13:37.608Z,1.37
2017-07-26T18:16:06.082Z,1.40
2017-07-26T18:18:34.563Z,1.60
2017-07-26T18:21:03.052Z,1.30
2017-07-26T18:23:31.572Z,1.00
2017-07-26T18:26:00.011Z,0.90
2017-07-26T18:28:28.519Z,0.70
2017-07-26T18:30:56.957Z,0.77
2017-07-26T18:33:25.500Z,0.60
2017-07-26T18:35:53.965Z,0.70
2017-07-26T18:38:22.430Z,0.60
2017-07-26T18:40:51.819Z,0.50
2017-07-26T18:43:20.438Z,0.70
2017-07-26T18:45:48.902Z,1.07
2017-07-26T18:48:17.367Z,0.50
2017-07-26T18:50:49.364Z,0.90
2017-07-26T18:53:18.045Z,0.60
2017-07-26T18:55:46.778Z,0.60
2017-07-26T18:58:15.243Z,0.70
2017-07-26T19:00:44.052Z,0.60
2017-07-26T19:03:14.992Z,0.57
2017-07-26T19:05:44.268Z,0.73
2017-07-26T19:08:12.738Z,0.70
2017-07-26T19:10:41.176Z,0.60
2017-07-26T19:13:09.803Z,0.50
2017-07-26T19:15:38.246Z,0.60
2017-07-26T19:18:06.684Z,0.73
2017-07-26T19:20:36.010Z,0.93
2017-07-26T19:23:04.466Z,0.60
2017-07-26T19:25:33.018Z,0.60
2017-07-26T19:28:02.240Z,0.97
2017-07-26T19:30:30.878Z,0.70
2017-07-26T19:33:01.296Z,0.60
2017-07-26T19:35:29.745Z,0.73
2017-07-26T19:37:58.219Z,0.50
2017-07-26T19:40:26.697Z,0.60
2017-07-26T19:42:55.166Z,0.70
2017-07-26T19:45:25.948Z,0.87
2017-07-26T19:47:54.435Z,1.03
2017-07-26T19:50:24.727Z,0.97
2017-07-26T19:52:53.150Z,0.83
2017-07-26T19:55:21.688Z,1.20
2017-07-26T19:57:50.159Z,1.23
2017-07-26T20:00:18.602Z,0.83
2017-07-26T20:02:47.106Z,0.93
2017-07-26T20:05:15.571Z,0.93
2017-07-26T20:07:44.077Z,0.70
2017-07-26T20:10:13.123Z,1.30
2017-07-26T20:12:41.607Z,0.83
2017-07-26T20:15:10.065Z,0.60
2017-07-26T20:17:40.103Z,0.73
2017-07-26T20:20:08.566Z,0.60
2017-07-26T20:22:36.991Z,0.80
2017-07-26T20:25:05.497Z,0.70
2017-07-26T20:27:34.015Z,0.50
2017-07-26T20:30:02.470Z,0.50
2017-07-26T20:32:31.241Z,2.83
2017-07-26T20:34:59.677Z,0.50
2017-07-26T20:37:28.115Z,0.83
2017-07-26T20:39:56.806Z,0.90
2017-07-26T20:42:25.322Z,0.57
2017-07-26T20:44:53.756Z,0.53
2017-07-26T20:47:22.251Z,0.67
2017-07-26T20:49:50.738Z,0.60
2017-07-26T20:52:19.199Z,0.70
2017-07-26T20:54:47.690Z,0.80
2017-07-26T20:57:16.182Z,0.70
2017-07-26T20:59:44.639Z,0.90
2017-07-26T21:02:13.406Z,0.60
2017-07-26T21:04:41.858Z,0.70
2017-07-26T21:07:10.294Z,0.70
2017-07-26T21:09:38.771Z,0.57
2017-07-26T21:12:07.212Z,0.87
2017-07-26T21:14:35.686Z,0.67
2017-07-26T21:17:04.178Z,0.73
2017-07-26T21:19:32.270Z,0.50
2017-07-26T21:22:00.763Z,0.70
2017-07-26T21:24:29.514Z,0.70
2017-07-26T21:26:57.990Z,0.50
2017-07-26T21:29:26.502Z,0.60
2017-07-26T21:31:54.979Z,0.80
2017-07-26T21:34:23.407Z,0.43
2017-07-26T21:36:51.912Z,0.70
2017-07-26T21:39:20.486Z,0.83
2017-07-26T21:41:49.238Z,0.75
2017-07-26T21:44:17.983Z,1.30
2017-07-26T21:46:46.489Z,1.00
2017-07-26T21:49:15.175Z,1.40
2017-07-26T21:51:43.905Z,1.12
2017-07-26T21:54:12.465Z,0.80
2017-07-26T21:56:41.341Z,0.60
2017-07-26T21:59:10.054Z,0.85
2017-07-26T22:01:38.800Z,0.88
2017-07-26T22:04:07.804Z,0.60
2017-07-26T22:06:36.496Z,1.15
2017-07-26T22:09:04.544Z,0.65
2017-07-26T22:11:33.238Z,0.70
2017-07-26T22:14:01.986Z,1.00
2017-07-26T22:16:30.731Z,0.75
2017-07-26T22:18:59.421Z,1.17
2017-07-26T22:21:28.152Z,0.93
2017-07-26T22:23:56.900Z,0.60
2017-07-26T22:26:25.636Z,1.30
2017-07-26T22:28:54.324Z,0.90
2017-07-26T22:31:23.066Z,0.60
2017-07-26T22:33:51.508Z,0.60
2017-07-26T22:36:19.975Z,1.00
2017-07-26T22:38:48.708Z,0.88
2017-07-26T22:41:17.420Z,0.98
2017-07-26T22:43:46.137Z,0.52
2017-07-26T22:46:14.865Z,1.00
2017-07-26T22:48:43.569Z,0.82
2017-07-26T22:51:12.270Z,1.23
2017-07-26T22:53:41.031Z,0.70
2017-07-26T22:56:09.498Z,0.90
2017-07-26T22:58:38.221Z,0.70
2017-07-26T23:01:06.959Z,0.62
2017-07-26T23:03:35.681Z,0.85
2017-07-26T23:06:04.386Z,1.77
2017-07-26T23:08:33.110Z,2.15
2017-07-26T23:11:01.579Z,0.70
2017-07-26T23:13:30.091Z,1.07
2017-07-26T23:15:58.994Z,0.73
2017-07-26T23:18:27.744Z,0.98
2017-07-26T23:20:56.480Z,0.70
2017-07-26T23:23:25.240Z,0.60
2017-07-26T23:25:53.673Z,0.63
2017-07-26T23:28:22.093Z,0.80
2017-07-26T23:30:50.627Z,0.90
2017-07-26T23:33:19.079Z,0.57
2017-07-26T23:35:47.794Z,0.85
2017-07-26T23:38:16.321Z,0.80
2017-07-26T23:40:45.023Z,0.77
2017-07-26T23:43:13.727Z,0.65
2017-07-26T23:45:42.250Z,0.60
2017-07-26T23:48:10.975Z,0.85
2017-07-26T23:50:39.456Z,0.53
2017-07-26T23:53:07.937Z,0.60
2017-07-26T23:55:36.635Z,0.80
2017-07-26T23:58:05.391Z,0.77
